Ana Sayfa
METAR-TAF:

METAR-TAF

Havaalanları :

Coober Pedy, Avustralya

Enlem: 29-02-24S, Boylam: 134-43-18E, yükseklik: 226 m

Güncel hava durumu gözlemi

Rapor saat 22:00 UTC de 28 dakika önce yapıldı.
Rüzgar doğu/güneydoğudan 13 kt
Sıcaklık 8°C
Nem 100%
Basınç 1010 hPa
Görüş mesafesi 10 km veya daha fazla
300 ft yükseklikte parçalı bulutlu
1300 ft yükseklikte parçalı çok bulutlu
4600 ft yükseklikte parçalı çok bulutlu

METAR: YCBP 052200Z AUTO 11013KT 9999 // SCT003 BKN013 BKN046 08/08 Q1010

Saat: 07:58 (22:28 UTC)


TAF: eksik

4.000'den fazla havaalanı için hava durumu gözlemleri ve tahminleri (METAR ve TAF raporları).

Kullanılabilir istasyonlar harita üzerinde sarı ve kırmızı noktalarla gösterilir.

İstasyonun adını görmek için fareyi noktanın üzerinde gezdirin.

Sonrasında hava gözlem ve tahminlerini görmek için tıklayın.

Haritayı değiştirmek için: yaklaştırmak için siyah artı işaretli yeşil düğmeye ve uzaklaştırmak için de eksi işaretli düğmeye hızla tıklayın; bitişik haritalar için yeşil okları kullanın.


METAR-TAF: